Terminal Aerodrome Forecast
Issued by NWS

Home | Current Version | Previous Version | Text Only | Print | Product List | Glossary On
Versions: 1 2 3 4 5 6 7 8 9 10 11 12 13 14 15 16 17 18 19 20 21 22 23 24 25 26 27 28 29 30 31
000
FTUS46 KLOX 282000 AAB
TAFLAX
TAF AMD
KLAX 282035Z 2821/0124 27013G17KT P6SM SCT030 SCT160 BKN230
     FM282200 27018G25KT P6SM SCT025 SCT040 BKN250
     FM010200 28012KT P6SM -SHRA SCT015 OVC030
     FM010700 VRB06KT P6SM -SHRA SCT015 OVC030
     FM011100 VRB06KT P6SM SCT025 BKN035 PROB30 0111/0115 22019KT
      -TSRA OVC030CB
     FM011900 19008KT P6SM SCT025 BKN040=

USA.gov is the U.S. government's official web portal to all federal, state and local government web resources and services.